Time;durP1;ratioP1;P1;durP2;ratioP2;P2;SDS_P1;SDS_P2;PMS_P1;PMS_P2;Temp;Humidity;BMP_temperature;BMP_pressure;BME280_temperature;BME280_humidity;BME280_pressure;Samples;Min_cycle;Max_cycle;Signal;HPM_P1;HPM_P2
2021/11/22 00:01:29;;;;;;;;;;;6.70;51.70;;;;;;4390355;32;19969;-36
2021/11/22 00:03:55;;;;;;;;;;;6.70;51.60;;;;;;4389914;32;20055;-37
2021/11/22 00:06:21;;;;;;;;;;;6.70;51.40;;;;;;4375905;32;20086;-36
2021/11/22 00:08:48;;;;;;;;;;;6.70;51.20;;;;;;4390106;32;20432;-38
2021/11/22 00:11:14;;;;;;;;;;;6.80;51.40;;;;;;4390150;32;19958;-38
2021/11/22 00:13:40;;;;;;;;;;;6.80;51.50;;;;;;4389747;32;20419;-37
2021/11/22 00:16:06;;;;;;;;;;;6.70;51.60;;;;;;4390011;32;20062;-38
2021/11/22 00:18:33;;;;;;;;;;;6.70;51.50;;;;;;4389970;32;19968;-37
2021/11/22 00:20:59;;;;;;;;;;;6.60;51.40;;;;;;4380224;32;19986;-38
2021/11/22 00:23:25;;;;;;;;;;;6.70;51.40;;;;;;4374631;32;20032;-36
2021/11/22 00:25:51;;;;;;;;;;;6.70;51.00;;;;;;4374718;32;19993;-35
2021/11/22 00:28:18;;;;;;;;;;;6.70;51.10;;;;;;4374564;32;19976;-39
2021/11/22 00:30:44;;;;;;;;;;;6.60;51.20;;;;;;4374539;32;19996;-38
2021/11/22 00:33:11;;;;;;;;;;;6.60;51.30;;;;;;4374385;32;20078;-38
2021/11/22 00:35:37;;;;;;;;;;;6.60;51.10;;;;;;4374781;32;20049;-36
2021/11/22 00:38:05;;;;;;;;;;;6.60;51.10;;;;;;4374786;32;19958;-37
2021/11/22 00:40:32;;;;;;;;;;;6.60;51.30;;;;;;4374682;32;19969;-37
2021/11/22 00:42:59;;;;;;;;;;;6.60;51.50;;;;;;4374598;32;20431;-38
2021/11/22 00:45:27;;;;;;;;;;;6.60;51.60;;;;;;4374141;32;20016;-38
2021/11/22 00:47:54;;;;;;;;;;;6.60;51.80;;;;;;4374082;32;19962;-38
2021/11/22 00:50:20;;;;;;;;;;;6.60;51.80;;;;;;4374053;32;19995;-37
2021/11/22 00:52:46;;;;;;;;;;;6.60;51.70;;;;;;4373627;32;20036;-38
2021/11/22 00:55:13;;;;;;;;;;;6.60;51.90;;;;;;4374620;32;19962;-37
2021/11/22 00:57:39;;;;;;;;;;;6.70;51.90;;;;;;4374261;32;19967;-38
2021/11/22 01:00:07;;;;;;;;;;;6.70;51.90;;;;;;4374056;32;19962;-38
2021/11/22 01:02:33;;;;;;;;;;;6.70;51.70;;;;;;4374415;32;19973;-37
2021/11/22 01:04:59;;;;;;;;;;;6.70;51.70;;;;;;4373931;32;20465;-39
2021/11/22 01:07:26;;;;;;;;;;;6.70;51.90;;;;;;4374008;32;19996;-38
2021/11/22 01:09:52;;;;;;;;;;;6.60;52.10;;;;;;4374050;32;20453;-38
2021/11/22 01:12:18;;;;;;;;;;;6.60;52.30;;;;;;4373751;32;20500;-36
2021/11/22 01:14:44;;;;;;;;;;;6.60;52.30;;;;;;4359701;32;20042;-38
2021/11/22 01:17:11;;;;;;;;;;;6.60;52.30;;;;;;4359704;32;19994;-37
2021/11/22 01:19:37;;;;;;;;;;;6.60;52.30;;;;;;4374076;32;19977;-35
2021/11/22 01:22:03;;;;;;;;;;;6.70;53.00;;;;;;4374438;32;19992;-39
2021/11/22 01:24:29;;;;;;;;;;;6.70;52.50;;;;;;4374018;32;20055;-37
2021/11/22 01:26:56;;;;;;;;;;;6.70;52.60;;;;;;4373921;32;20045;-37
2021/11/22 01:29:22;;;;;;;;;;;6.70;52.70;;;;;;4373703;32;20436;-38
2021/11/22 01:31:48;;;;;;;;;;;6.70;52.80;;;;;;4347628;32;19998;-40
2021/11/22 01:34:15;;;;;;;;;;;6.70;52.90;;;;;;4373312;32;19974;-37
2021/11/22 01:36:41;;;;;;;;;;;6.70;53.20;;;;;;4372006;32;20391;-37
2021/11/22 01:39:07;;;;;;;;;;;6.80;53.50;;;;;;4382491;32;19966;-39
2021/11/22 01:41:33;;;;;;;;;;;6.80;53.60;;;;;;4388611;32;20034;-38
2021/11/22 01:43:59;;;;;;;;;;;6.80;53.50;;;;;;4388239;32;20385;-38
2021/11/22 01:46:27;;;;;;;;;;;6.80;53.50;;;;;;4388085;32;19969;-37
2021/11/22 01:48:56;;;;;;;;;;;6.80;53.70;;;;;;4388136;32;20446;-38
2021/11/22 01:51:22;;;;;;;;;;;6.70;54.00;;;;;;4388105;32;19962;-37
2021/11/22 01:53:48;;;;;;;;;;;6.70;54.40;;;;;;4388456;32;19977;-38
2021/11/22 01:56:14;;;;;;;;;;;6.70;54.70;;;;;;4388174;32;20373;-37
2021/11/22 01:58:41;;;;;;;;;;;6.70;55.10;;;;;;4387999;32;20005;-36
2021/11/22 02:01:07;;;;;;;;;;;6.60;55.60;;;;;;4388812;32;20399;-38
2021/11/22 02:03:33;;;;;;;;;;;6.60;56.40;;;;;;4388345;32;19966;-37
2021/11/22 02:05:59;;;;;;;;;;;6.60;57.10;;;;;;4387644;32;20121;-38
2021/11/22 02:08:25;;;;;;;;;;;6.50;57.80;;;;;;4388374;32;19970;-37
2021/11/22 02:10:52;;;;;;;;;;;6.50;58.30;;;;;;4387932;32;19973;-39
2021/11/22 02:13:18;;;;;;;;;;;6.40;58.70;;;;;;4388268;32;20376;-38
2021/11/22 02:15:46;;;;;;;;;;;6.40;59.00;;;;;;4388069;32;20053;-38
2021/11/22 02:18:12;;;;;;;;;;;6.40;59.30;;;;;;4387888;32;19966;-36
2021/11/22 02:20:38;;;;;;;;;;;6.30;59.70;;;;;;4380550;32;19978;-38
2021/11/22 02:23:06;;;;;;;;;;;6.30;59.70;;;;;;4372939;32;19982;-37
2021/11/22 02:25:33;;;;;;;;;;;6.30;59.80;;;;;;4373554;32;20001;-38
2021/11/22 02:27:59;;;;;;;;;;;6.30;59.80;;;;;;4373026;32;20055;-38
2021/11/22 02:30:32;;;;;;;;;;;6.30;59.90;;;;;;4373118;32;20005;-34
2021/11/22 02:32:59;;;;;;;;;;;6.30;60.00;;;;;;4372990;32;20004;-38
2021/11/22 02:35:26;;;;;;;;;;;6.30;59.90;;;;;;4373332;32;20406;-37
2021/11/22 02:37:52;;;;;;;;;;;6.30;60.00;;;;;;4358867;32;19985;-36
2021/11/22 02:40:18;;;;;;;;;;;6.30;60.10;;;;;;4373164;32;20401;-37
2021/11/22 02:42:45;;;;;;;;;;;6.30;60.20;;;;;;4372412;32;19995;-37
2021/11/22 02:45:13;;;;;;;;;;;6.30;60.30;;;;;;4372770;32;19977;-38
2021/11/22 02:47:41;;;;;;;;;;;6.20;60.40;;;;;;4372817;32;19988;-38
2021/11/22 02:50:08;;;;;;;;;;;6.20;60.50;;;;;;4372708;32;19968;-38
2021/11/22 02:52:35;;;;;;;;;;;6.20;60.60;;;;;;4373156;32;19970;-38
2021/11/22 02:55:03;;;;;;;;;;;6.20;60.60;;;;;;4372903;32;19970;-39
2021/11/22 02:57:32;;;;;;;;;;;6.20;60.50;;;;;;4373131;32;20616;-38
2021/11/22 02:59:58;;;;;;;;;;;6.20;60.70;;;;;;4372717;32;20050;-38
2021/11/22 03:02:24;;;;;;;;;;;6.20;60.80;;;;;;4372583;32;20038;-38
2021/11/22 03:04:52;;;;;;;;;;;6.10;60.70;;;;;;4372302;32;20008;-37
2021/11/22 03:07:19;;;;;;;;;;;6.10;60.80;;;;;;4372494;32;20382;-37
2021/11/22 03:09:45;;;;;;;;;;;6.10;60.80;;;;;;4355089;32;20484;-38
2021/11/22 03:12:12;;;;;;;;;;;6.00;60.90;;;;;;4355176;32;20403;-37
2021/11/22 03:14:39;;;;;;;;;;;6.00;61.10;;;;;;4355342;32;19994;-37
2021/11/22 03:17:05;;;;;;;;;;;6.00;61.10;;;;;;4356673;32;19994;-38
2021/11/22 03:19:32;;;;;;;;;;;6.00;61.30;;;;;;4358686;32;19982;-38
2021/11/22 03:22:01;;;;;;;;;;;6.00;61.30;;;;;;4372955;32;20441;-37
2021/11/22 03:24:27;;;;;;;;;;;5.90;61.30;;;;;;4372747;32;20421;-38
2021/11/22 03:26:53;;;;;;;;;;;5.90;61.40;;;;;;4373262;32;19997;-38
2021/11/22 03:29:19;;;;;;;;;;;5.90;61.40;;;;;;4372922;32;19973;-38
2021/11/22 03:31:46;;;;;;;;;;;6.00;61.30;;;;;;4372775;32;19996;-37
2021/11/22 03:34:13;;;;;;;;;;;6.00;61.30;;;;;;4360670;32;20054;-38
2021/11/22 03:36:40;;;;;;;;;;;6.00;61.20;;;;;;4372464;32;20466;-38
2021/11/22 03:39:11;;;;;;;;;;;6.00;61.10;;;;;;4372672;32;20064;-38
2021/11/22 03:41:38;;;;;;;;;;;6.00;61.10;;;;;;4372705;32;20556;-39
2021/11/22 03:44:12;;;;;;;;;;;6.10;61.00;;;;;;4372287;32;20056;-37
2021/11/22 03:46:39;;;;;;;;;;;6.10;60.80;;;;;;4377648;32;19970;-39
2021/11/22 03:49:05;;;;;;;;;;;6.10;60.70;;;;;;4390547;32;19962;-39
2021/11/22 03:51:32;;;;;;;;;;;6.10;60.60;;;;;;4389893;32;19974;-39
2021/11/22 03:53:58;;;;;;;;;;;6.10;60.60;;;;;;4389954;32;19985;-38
2021/11/22 03:56:24;;;;;;;;;;;6.10;60.60;;;;;;4390001;32;19965;-37
2021/11/22 03:58:50;;;;;;;;;;;6.10;60.40;;;;;;4389595;32;20389;-39
2021/11/22 04:01:17;;;;;;;;;;;6.10;60.50;;;;;;4389992;32;20463;-38
2021/11/22 04:03:44;;;;;;;;;;;6.10;60.40;;;;;;4390247;32;19986;-38
2021/11/22 04:06:11;;;;;;;;;;;6.10;60.40;;;;;;4389585;32;20403;-39
2021/11/22 04:08:37;;;;;;;;;;;6.10;60.00;;;;;;4389644;32;19993;-37
2021/11/22 04:11:03;;;;;;;;;;;6.10;59.80;;;;;;4390052;32;19969;-40
2021/11/22 04:13:29;;;;;;;;;;;6.10;59.70;;;;;;4389996;32;19968;-39
2021/11/22 04:15:56;;;;;;;;;;;6.10;59.70;;;;;;4375553;32;19962;-38
2021/11/22 04:18:22;;;;;;;;;;;6.10;59.70;;;;;;4389748;32;19980;-39
2021/11/22 04:20:48;;;;;;;;;;;6.10;59.70;;;;;;4380893;32;19989;-36
2021/11/22 04:23:14;;;;;;;;;;;6.10;59.60;;;;;;4374854;32;19970;-40
2021/11/22 04:25:40;;;;;;;;;;;6.10;59.60;;;;;;4374594;32;19963;-38
2021/11/22 04:28:07;;;;;;;;;;;6.10;59.60;;;;;;4373996;32;19999;-39
2021/11/22 04:30:34;;;;;;;;;;;6.10;59.60;;;;;;4374639;32;19981;-39
2021/11/22 04:33:00;;;;;;;;;;;6.10;59.60;;;;;;4372618;32;20351;-37
2021/11/22 04:35:27;;;;;;;;;;;6.10;59.60;;;;;;4374501;32;20427;-39
2021/11/22 04:37:53;;;;;;;;;;;6.10;59.50;;;;;;4374781;32;19962;-38
2021/11/22 04:40:19;;;;;;;;;;;6.20;59.60;;;;;;4389542;32;20045;-38
2021/11/22 04:42:47;;;;;;;;;;;6.10;59.50;;;;;;4389724;32;19972;-37
2021/11/22 04:45:15;;;;;;;;;;;6.10;59.50;;;;;;4390032;32;19985;-38
2021/11/22 04:47:41;;;;;;;;;;;6.20;59.60;;;;;;4375300;32;20028;-38
2021/11/22 04:50:08;;;;;;;;;;;6.20;59.60;;;;;;4389239;32;19965;-39
2021/11/22 04:52:35;;;;;;;;;;;6.20;59.50;;;;;;4375264;32;19966;-39
2021/11/22 04:55:01;;;;;;;;;;;6.20;59.40;;;;;;4388894;32;20381;-38
2021/11/22 04:57:27;;;;;;;;;;;6.20;59.30;;;;;;4389141;32;19961;-39
2021/11/22 04:59:54;;;;;;;;;;;6.30;59.30;;;;;;4388933;32;20080;-38
2021/11/22 05:02:20;;;;;;;;;;;6.30;59.40;;;;;;4375220;32;19981;-35
2021/11/22 05:04:46;;;;;;;;;;;6.30;59.20;;;;;;4389059;32;20040;-39
2021/11/22 05:07:12;;;;;;;;;;;6.30;59.20;;;;;;4388996;32;19961;-38
2021/11/22 05:09:38;;;;;;;;;;;6.30;59.20;;;;;;4389021;32;19985;-36
2021/11/22 05:12:05;;;;;;;;;;;6.30;59.20;;;;;;4389068;32;20050;-39
2021/11/22 05:14:31;;;;;;;;;;;6.30;59.30;;;;;;4388665;32;20366;-38
2021/11/22 05:16:57;;;;;;;;;;;6.40;59.40;;;;;;4388602;32;19996;-38
2021/11/22 05:19:30;;;;;;;;;;;6.40;59.50;;;;;;4388454;32;19981;-37
2021/11/22 05:21:57;;;;;;;;;;;6.40;59.40;;;;;;4373338;32;20449;-38
2021/11/22 05:24:23;;;;;;;;;;;6.50;59.30;;;;;;4373483;32;19992;-38
2021/11/22 05:26:50;;;;;;;;;;;6.50;59.10;;;;;;4373895;32;20071;-38
2021/11/22 05:29:16;;;;;;;;;;;6.50;59.30;;;;;;4373633;32;20402;-38
2021/11/22 05:31:42;;;;;;;;;;;6.50;59.20;;;;;;4373468;32;19966;-39
2021/11/22 05:34:08;;;;;;;;;;;6.50;59.20;;;;;;4373279;32;19989;-38
2021/11/22 05:36:36;;;;;;;;;;;6.60;59.30;;;;;;4373613;32;19986;-37
2021/11/22 05:39:05;;;;;;;;;;;6.60;59.20;;;;;;4373581;32;19966;-38
2021/11/22 05:41:32;;;;;;;;;;;6.60;59.20;;;;;;4373770;32;19965;-38
2021/11/22 05:43:58;;;;;;;;;;;6.60;59.10;;;;;;4373588;32;20040;-38
2021/11/22 05:46:24;;;;;;;;;;;6.60;59.00;;;;;;4373165;32;20458;-38
2021/11/22 05:48:51;;;;;;;;;;;6.70;59.00;;;;;;4371733;32;20021;-38
2021/11/22 05:51:18;;;;;;;;;;;6.60;58.90;;;;;;4359309;32;19962;-38
2021/11/22 05:53:49;;;;;;;;;;;6.60;59.00;;;;;;4371523;32;20053;-38
2021/11/22 05:56:17;;;;;;;;;;;6.60;58.80;;;;;;4373595;32;19977;-39
2021/11/22 05:58:44;;;;;;;;;;;6.60;59.00;;;;;;4373044;32;20433;-39
2021/11/22 06:01:10;;;;;;;;;;;6.60;59.00;;;;;;4373311;32;19965;-38
2021/11/22 06:03:36;;;;;;;;;;;6.60;59.10;;;;;;4373072;32;20087;-39
2021/11/22 06:06:02;;;;;;;;;;;6.70;59.20;;;;;;4373082;32;20379;-39
2021/11/22 06:08:29;;;;;;;;;;;6.70;59.20;;;;;;4373611;32;20060;-37
2021/11/22 06:10:55;;;;;;;;;;;6.70;59.20;;;;;;4373410;32;19997;-38
2021/11/22 06:13:22;;;;;;;;;;;6.80;59.20;;;;;;4373406;32;20421;-38
2021/11/22 06:15:48;;;;;;;;;;;6.80;58.90;;;;;;4373506;32;19974;-38
2021/11/22 06:18:15;;;;;;;;;;;6.90;59.00;;;;;;4373549;32;20005;-39
2021/11/22 06:20:41;;;;;;;;;;;6.90;58.80;;;;;;4373002;32;20042;-38
2021/11/22 06:23:07;;;;;;;;;;;7.00;58.40;;;;;;4373085;32;20339;-38
2021/11/22 06:25:34;;;;;;;;;;;7.00;58.60;;;;;;4372806;32;20374;-37
2021/11/22 06:28:01;;;;;;;;;;;7.10;58.50;;;;;;4372878;32;20486;-38
2021/11/22 06:30:27;;;;;;;;;;;7.20;57.60;;;;;;4373266;32;20017;-38
2021/11/22 06:32:54;;;;;;;;;;;7.20;56.90;;;;;;4373050;32;19976;-37
2021/11/22 06:35:20;;;;;;;;;;;7.10;56.90;;;;;;4373222;32;20374;-38
2021/11/22 06:37:47;;;;;;;;;;;7.10;57.20;;;;;;4372980;32;20448;-38
2021/11/22 06:40:13;;;;;;;;;;;7.10;57.20;;;;;;4387584;32;20005;-39
2021/11/22 06:42:39;;;;;;;;;;;7.10;57.10;;;;;;4387487;32;20067;-38
2021/11/22 06:45:06;;;;;;;;;;;7.10;56.80;;;;;;4387947;32;20045;-37
2021/11/22 06:47:33;;;;;;;;;;;7.10;57.10;;;;;;4388066;32;20490;-38
2021/11/22 06:49:59;;;;;;;;;;;7.20;57.00;;;;;;4387710;32;19988;-38
2021/11/22 06:52:25;;;;;;;;;;;7.30;56.90;;;;;;4392030;32;20081;-38
2021/11/22 06:54:52;;;;;;;;;;;7.40;56.70;;;;;;4393027;32;19974;-39
2021/11/22 06:57:19;;;;;;;;;;;7.50;56.40;;;;;;4392582;32;19977;-38
2021/11/22 06:59:45;;;;;;;;;;;7.60;56.00;;;;;;4392551;32;19972;-39
2021/11/22 07:02:16;;;;;;;;;;;7.70;55.40;;;;;;4378638;32;20048;-38
2021/11/22 07:04:45;;;;;;;;;;;7.70;54.90;;;;;;4392611;32;19993;-39
2021/11/22 07:07:12;;;;;;;;;;;7.70;54.60;;;;;;4392899;32;20053;-37
2021/11/22 07:09:39;;;;;;;;;;;7.70;54.80;;;;;;4392807;32;19981;-36
2021/11/22 07:12:06;;;;;;;;;;;7.60;54.70;;;;;;4392636;32;20105;-38
2021/11/22 07:14:33;;;;;;;;;;;7.60;55.00;;;;;;4392812;32;19977;-38
2021/11/22 07:16:59;;;;;;;;;;;7.50;55.10;;;;;;4393271;32;19970;-37
2021/11/22 07:19:25;;;;;;;;;;;7.50;55.30;;;;;;4392647;32;20059;-37
2021/11/22 07:21:53;;;;;;;;;;;7.50;55.60;;;;;;4377271;32;20016;-38
2021/11/22 07:24:20;;;;;;;;;;;7.50;55.60;;;;;;4377123;32;20408;-38
2021/11/22 07:26:46;;;;;;;;;;;7.50;55.70;;;;;;4377359;32;19977;-38
2021/11/22 07:29:15;;;;;;;;;;;7.40;55.70;;;;;;4363491;32;19969;-38
2021/11/22 07:31:42;;;;;;;;;;;7.50;55.60;;;;;;4377174;32;20426;-38
2021/11/22 07:34:08;;;;;;;;;;;7.50;56.10;;;;;;4344764;32;19982;-38
2021/11/22 07:36:34;;;;;;;;;;;7.40;55.60;;;;;;4344842;32;19982;-38
2021/11/22 07:39:00;;;;;;;;;;;7.40;56.30;;;;;;4344980;32;20006;-36
2021/11/22 07:41:27;;;;;;;;;;;7.40;55.60;;;;;;4345411;33;20092;-37
2021/11/22 07:43:53;;;;;;;;;;;7.30;55.80;;;;;;4344702;33;20113;-38
2021/11/22 07:46:19;;;;;;;;;;;7.30;56.20;;;;;;4345065;33;20094;-38
2021/11/22 07:48:45;;;;;;;;;;;7.20;56.60;;;;;;4344672;33;19993;-39
2021/11/22 07:51:12;;;;;;;;;;;7.20;57.20;;;;;;4344950;33;20457;-37
2021/11/22 07:53:39;;;;;;;;;;;7.10;57.60;;;;;;4345260;33;19963;-37
2021/11/22 07:56:06;;;;;;;;;;;7.00;58.10;;;;;;4345215;33;20443;-37
2021/11/22 07:58:32;;;;;;;;;;;7.00;58.60;;;;;;4344638;32;20418;-38
2021/11/22 08:00:59;;;;;;;;;;;7.00;59.10;;;;;;4344918;33;19975;-38
2021/11/22 08:03:25;;;;;;;;;;;6.90;59.20;;;;;;4343438;32;20445;-37
2021/11/22 08:05:55;;;;;;;;;;;6.90;59.40;;;;;;4368329;32;19958;-38
2021/11/22 08:08:23;;;;;;;;;;;7.00;59.80;;;;;;4372179;32;20001;-38
2021/11/22 08:11:04;;;;;;;;;;;7.00;60.00;;;;;;4372209;32;19990;-37
2021/11/22 08:13:31;;;;;;;;;;;7.00;59.70;;;;;;4361185;32;19993;-35
2021/11/22 08:16:00;;;;;;;;;;;7.00;59.60;;;;;;4372238;32;20415;-39
2021/11/22 08:18:26;;;;;;;;;;;7.10;59.70;;;;;;4372624;32;19978;-39
2021/11/22 08:20:52;;;;;;;;;;;7.10;59.50;;;;;;4371892;32;20401;-39
2021/11/22 08:23:19;;;;;;;;;;;7.10;59.40;;;;;;4359653;32;19988;-38
2021/11/22 08:25:45;;;;;;;;;;;7.20;59.40;;;;;;4371944;32;20422;-39
2021/11/22 08:28:11;;;;;;;;;;;7.20;58.90;;;;;;4372175;32;19970;-39
2021/11/22 08:30:38;;;;;;;;;;;7.20;58.30;;;;;;4371664;32;20418;-38
2021/11/22 08:33:04;;;;;;;;;;;7.20;58.30;;;;;;4359528;32;20054;-37
2021/11/22 08:35:33;;;;;;;;;;;7.20;58.80;;;;;;4371858;32;20057;-37
2021/11/22 08:38:00;;;;;;;;;;;7.20;58.90;;;;;;4373469;32;19982;-39
2021/11/22 08:40:26;;;;;;;;;;;7.20;58.90;;;;;;4374606;32;19985;-39
2021/11/22 08:42:54;;;;;;;;;;;7.20;58.90;;;;;;4386458;32;20076;-38
2021/11/22 08:45:21;;;;;;;;;;;7.20;58.90;;;;;;4387405;32;19981;-38
2021/11/22 08:47:47;;;;;;;;;;;7.20;59.10;;;;;;4389158;32;20005;-39
2021/11/22 08:50:14;;;;;;;;;;;7.30;59.20;;;;;;4388792;32;20390;-39
2021/11/22 08:52:41;;;;;;;;;;;7.30;59.10;;;;;;4389390;32;20035;-38
2021/11/22 08:55:07;;;;;;;;;;;7.30;58.50;;;;;;4388877;32;19973;-38
2021/11/22 08:57:34;;;;;;;;;;;7.40;58.30;;;;;;4389033;32;21022;-36
2021/11/22 09:00:01;;;;;;;;;;;7.50;57.80;;;;;;4389313;32;19962;-38
2021/11/22 09:02:28;;;;;;;;;;;7.50;57.50;;;;;;4389061;32;19984;-38
2021/11/22 09:04:54;;;;;;;;;;;7.60;57.40;;;;;;4388715;32;20480;-40
2021/11/22 09:07:20;;;;;;;;;;;7.70;56.00;;;;;;4388713;32;19989;-39
2021/11/22 09:09:46;;;;;;;;;;;7.60;55.10;;;;;;4388486;32;20395;-39
2021/11/22 09:12:13;;;;;;;;;;;7.70;54.80;;;;;;4388662;32;19970;-38
2021/11/22 09:14:39;;;;;;;;;;;7.60;54.60;;;;;;4388414;32;19961;-37
2021/11/22 09:17:05;;;;;;;;;;;7.70;54.40;;;;;;4388865;32;20000;-37
2021/11/22 09:19:32;;;;;;;;;;;7.70;53.80;;;;;;4388018;32;19980;-38
2021/11/22 09:21:58;;;;;;;;;;;7.70;53.60;;;;;;4373304;32;19962;-38
2021/11/22 09:24:24;;;;;;;;;;;7.70;53.20;;;;;;4373726;32;19990;-38
2021/11/22 09:26:50;;;;;;;;;;;7.70;53.20;;;;;;4373321;32;20046;-39
2021/11/22 09:29:17;;;;;;;;;;;7.70;53.00;;;;;;4373869;32;20414;-39
2021/11/22 09:31:43;;;;;;;;;;;7.70;52.90;;;;;;4359612;32;20001;-39
2021/11/22 09:34:09;;;;;;;;;;;7.60;53.00;;;;;;4373507;32;20482;-39
2021/11/22 09:36:35;;;;;;;;;;;7.60;52.60;;;;;;4359151;32;20069;-34
2021/11/22 09:39:02;;;;;;;;;;;7.70;52.50;;;;;;4373499;32;19969;-38
2021/11/22 09:41:29;;;;;;;;;;;7.70;52.20;;;;;;4372090;32;19996;-39
2021/11/22 09:43:56;;;;;;;;;;;7.70;52.10;;;;;;4373108;32;20479;-39
2021/11/22 09:46:22;;;;;;;;;;;7.70;51.70;;;;;;4373497;32;19977;-39
2021/11/22 09:48:48;;;;;;;;;;;7.70;52.10;;;;;;4373095;32;19973;-38
2021/11/22 09:51:15;;;;;;;;;;;7.70;51.90;;;;;;4373357;32;20082;-37
2021/11/22 09:53:41;;;;;;;;;;;7.80;51.70;;;;;;4373219;32;19972;-39
2021/11/22 09:56:09;;;;;;;;;;;7.80;51.70;;;;;;4373024;32;20054;-36
2021/11/22 09:58:35;;;;;;;;;;;7.80;51.70;;;;;;4373383;32;20033;-38
2021/11/22 10:01:04;;;;;;;;;;;7.90;51.90;;;;;;4372841;32;19970;-38
2021/11/22 10:03:31;;;;;;;;;;;8.00;51.80;;;;;;4373238;32;19981;-38
2021/11/22 10:05:58;;;;;;;;;;;8.00;51.40;;;;;;4372903;32;19990;-39
2021/11/22 10:08:24;;;;;;;;;;;7.90;51.70;;;;;;4373006;32;19974;-37
2021/11/22 10:10:58;;;;;;;;;;;8.00;51.90;;;;;;4372741;32;19977;-38
2021/11/22 10:13:41;;;;;;;;;;;8.00;52.40;;;;;;4373367;32;19958;-37
2021/11/22 10:16:07;;;;;;;;;;;8.00;52.30;;;;;;4372977;32;20069;-36
2021/11/22 10:18:43;;;;;;;;;;;7.90;52.30;;;;;;4373057;32;19965;-37
2021/11/22 10:21:14;;;;;;;;;;;7.90;52.30;;;;;;4373227;32;20058;-39
2021/11/22 10:23:41;;;;;;;;;;;7.90;52.10;;;;;;4372964;32;19989;-38
2021/11/22 10:26:14;;;;;;;;;;;7.80;52.10;;;;;;4372751;32;19981;-38
2021/11/22 10:28:51;;;;;;;;;;;7.80;52.10;;;;;;4371561;32;19962;-39
2021/11/22 10:31:22;;;;;;;;;;;7.80;51.90;;;;;;4372685;32;20374;-38
2021/11/22 10:33:49;;;;;;;;;;;7.80;51.90;;;;;;4372858;32;19989;-38
2021/11/22 10:36:17;;;;;;;;;;;7.70;52.10;;;;;;4371412;32;20484;-38
2021/11/22 10:38:45;;;;;;;;;;;7.70;51.50;;;;;;4378903;32;19986;-37
2021/11/22 10:41:14;;;;;;;;;;;7.70;51.40;;;;;;4373666;32;20049;-39
2021/11/22 10:43:52;;;;;;;;;;;7.60;51.60;;;;;;4388013;32;19977;-38
2021/11/22 10:46:40;;;;;;;;;;;7.60;51.40;;;;;;4387992;32;20000;-38
2021/11/22 10:49:15;;;;;;;;;;;7.60;51.20;;;;;;4388140;32;19970;-38
2021/11/22 10:51:48;;;;;;;;;;;7.60;51.20;;;;;;4387689;32;20016;-37
2021/11/22 10:54:15;;;;;;;;;;;7.50;50.80;;;;;;4374143;32;20046;-38
2021/11/22 10:56:49;;;;;;;;;;;7.60;50.90;;;;;;4387591;32;19961;-36
2021/11/22 10:59:17;;;;;;;;;;;7.50;50.60;;;;;;4387965;32;20046;-39
2021/11/22 11:01:45;;;;;;;;;;;7.60;50.10;;;;;;4387765;32;19974;-39
2021/11/22 11:04:28;;;;;;;;;;;7.60;49.90;;;;;;4387452;32;20128;-37
2021/11/22 11:07:02;;;;;;;;;;;7.60;49.90;;;;;;4373884;32;19986;-40
2021/11/22 11:09:37;;;;;;;;;;;7.60;50.30;;;;;;4387181;32;20393;-38
2021/11/22 11:12:03;;;;;;;;;;;7.60;49.00;;;;;;4387505;32;19981;-38
2021/11/22 11:14:30;;;;;;;;;;;7.60;49.00;;;;;;4387210;32;19962;-38
2021/11/22 11:17:28;;;;;;;;;;;7.60;48.90;;;;;;4387601;32;20451;-38
2021/11/22 11:19:55;;;;;;;;;;;7.60;49.20;;;;;;4362155;32;19978;-39
2021/11/22 11:22:25;;;;;;;;;;;7.60;49.20;;;;;;4358897;32;19966;-39
2021/11/22 11:24:52;;;;;;;;;;;7.50;49.80;;;;;;4372397;32;20374;-39
2021/11/22 11:27:18;;;;;;;;;;;7.50;49.90;;;;;;4372834;32;19970;-39
2021/11/22 11:29:44;;;;;;;;;;;7.50;50.00;;;;;;4372023;32;20145;-38
2021/11/22 11:32:11;;;;;;;;;;;7.60;49.80;;;;;;4372447;32;19970;-39
2021/11/22 11:34:41;;;;;;;;;;;7.60;49.60;;;;;;4372725;32;20359;-38
2021/11/22 11:37:29;;;;;;;;;;;7.70;49.10;;;;;;4358969;32;19977;-38
2021/11/22 11:40:20;;;;;;;;;;;7.60;48.60;;;;;;4374836;32;19958;-39
2021/11/22 11:43:10;;;;;;;;;;;7.70;48.50;;;;;;4374784;32;19970;-38
2021/11/22 11:45:58;;;;;;;;;;;7.60;48.30;;;;;;4374890;32;19960;-38
2021/11/22 11:48:39;;;;;;;;;;;7.60;48.30;;;;;;4374918;32;19966;-39
2021/11/22 11:51:29;;;;;;;;;;;7.60;48.50;;;;;;4361521;32;20067;-39
2021/11/22 11:54:04;;;;;;;;;;;7.70;47.90;;;;;;4363234;32;19966;-38
2021/11/22 11:56:31;;;;;;;;;;;7.70;47.10;;;;;;4375114;32;20046;-39
2021/11/22 11:59:18;;;;;;;;;;;7.70;47.00;;;;;;4375326;32;19993;-39
2021/11/22 12:02:10;;;;;;;;;;;7.70;46.60;;;;;;4375078;32;19974;-38
2021/11/22 12:04:46;;;;;;;;;;;7.60;46.70;;;;;;4374458;32;20060;-39
2021/11/22 12:07:23;;;;;;;;;;;7.70;46.50;;;;;;4374288;32;19962;-39
2021/11/22 12:10:07;;;;;;;;;;;7.70;46.70;;;;;;4361739;32;19958;-38
2021/11/22 12:12:35;;;;;;;;;;;7.70;46.00;;;;;;4374260;32;20413;-38
2021/11/22 12:15:22;;;;;;;;;;;7.70;45.70;;;;;;4360581;32;20027;-38
2021/11/22 12:17:59;;;;;;;;;;;7.60;46.00;;;;;;4374235;32;19990;-38
2021/11/22 12:20:25;;;;;;;;;;;7.70;46.10;;;;;;4374221;32;19959;-40
2021/11/22 12:22:53;;;;;;;;;;;7.70;45.80;;;;;;4374088;32;19974;-38
2021/11/22 12:25:44;;;;;;;;;;;7.80;45.80;;;;;;4374224;32;19968;-38
2021/11/22 12:28:19;;;;;;;;;;;7.80;45.00;;;;;;4374541;32;20002;-37
2021/11/22 12:30:46;;;;;;;;;;;7.70;44.40;;;;;;4374445;32;19973;-36
2021/11/22 12:33:25;;;;;;;;;;;7.60;44.60;;;;;;4374768;32;20031;-38
2021/11/22 12:36:00;;;;;;;;;;;7.60;44.00;;;;;;4374609;32;20405;-39
2021/11/22 12:38:34;;;;;;;;;;;7.50;43.90;;;;;;4378704;32;20058;-39
2021/11/22 12:41:03;;;;;;;;;;;7.40;43.70;;;;;;4389258;32;19966;-40
2021/11/22 12:43:43;;;;;;;;;;;7.40;43.80;;;;;;4389404;32;19972;-38
2021/11/22 12:46:23;;;;;;;;;;;7.30;43.70;;;;;;4389257;32;19969;-38
2021/11/22 12:48:51;;;;;;;;;;;7.30;43.80;;;;;;4374499;32;20425;-40
2021/11/22 12:51:19;;;;;;;;;;;7.20;44.10;;;;;;4389279;32;19988;-39
2021/11/22 12:54:05;;;;;;;;;;;7.10;44.40;;;;;;4389241;32;20101;-38
2021/11/22 12:56:34;;;;;;;;;;;7.10;44.80;;;;;;4389157;32;20112;-38
2021/11/22 12:59:15;;;;;;;;;;;7.10;45.20;;;;;;4388762;32;19981;-39
2021/11/22 13:01:44;;;;;;;;;;;7.00;45.50;;;;;;4389030;32;20347;-38
2021/11/22 13:04:11;;;;;;;;;;;7.00;46.00;;;;;;4389080;32;20405;-39
2021/11/22 13:06:39;;;;;;;;;;;7.00;46.30;;;;;;4374560;32;19986;-39
2021/11/22 13:09:10;;;;;;;;;;;7.00;45.80;;;;;;4388995;32;19977;-39
2021/11/22 13:11:51;;;;;;;;;;;6.90;44.70;;;;;;4389155;32;19965;-39
2021/11/22 13:14:23;;;;;;;;;;;6.90;45.00;;;;;;4388937;32;19973;-39
2021/11/22 13:16:50;;;;;;;;;;;6.80;45.00;;;;;;4388536;32;19977;-38
2021/11/22 13:19:17;;;;;;;;;;;6.80;44.80;;;;;;4389527;32;20370;-39
2021/11/22 13:21:49;;;;;;;;;;;6.80;44.30;;;;;;4374189;32;20060;-39
2021/11/22 13:24:17;;;;;;;;;;;6.70;43.30;;;;;;4373560;32;20420;-38
2021/11/22 13:26:43;;;;;;;;;;;6.70;43.30;;;;;;4373470;32;20004;-39
2021/11/22 13:29:20;;;;;;;;;;;6.60;42.90;;;;;;4373291;32;19997;-40
2021/11/22 13:31:48;;;;;;;;;;;6.60;43.10;;;;;;4373437;32;20144;-38
2021/11/22 13:34:18;;;;;;;;;;;6.60;43.10;;;;;;4373956;32;20042;-38
2021/11/22 13:36:51;;;;;;;;;;;6.60;42.90;;;;;;4373868;32;19989;-37
2021/11/22 13:39:23;;;;;;;;;;;6.60;43.00;;;;;;4373304;32;19985;-39
2021/11/22 13:42:06;;;;;;;;;;;6.60;43.10;;;;;;4372837;32;20355;-35
2021/11/22 13:44:40;;;;;;;;;;;6.60;43.10;;;;;;4373047;32;19985;-39
2021/11/22 13:47:36;;;;;;;;;;;6.50;42.60;;;;;;4373178;32;20037;-38
2021/11/22 13:50:02;;;;;;;;;;;6.50;42.80;;;;;;4326105;33;19991;-38
2021/11/22 13:52:28;;;;;;;;;;;6.50;42.70;;;;;;4311455;33;20042;-38
2021/11/22 13:54:55;;;;;;;;;;;6.40;43.10;;;;;;4311723;33;19983;-40
2021/11/22 13:57:23;;;;;;;;;;;6.40;43.10;;;;;;4299285;33;20680;-38
2021/11/22 13:59:50;;;;;;;;;;;6.40;43.30;;;;;;4311698;33;20062;-37
2021/11/22 14:02:22;;;;;;;;;;;6.40;43.40;;;;;;4311631;33;19975;-39
2021/11/22 14:04:51;;;;;;;;;;;6.40;43.60;;;;;;4311149;33;20042;-39
2021/11/22 14:07:28;;;;;;;;;;;6.40;43.70;;;;;;4311375;33;19990;-40
2021/11/22 14:09:55;;;;;;;;;;;6.40;44.00;;;;;;4311361;33;19975;-38
2021/11/22 14:12:39;;;;;;;;;;;6.40;44.30;;;;;;4311194;33;19972;-34
2021/11/22 14:15:26;;;;;;;;;;;6.40;44.00;;;;;;4311124;33;19983;-39
2021/11/22 14:17:52;;;;;;;;;;;6.30;43.60;;;;;;4310919;33;20078;-38
2021/11/22 14:20:19;;;;;;;;;;;6.30;43.50;;;;;;4316478;33;19975;-37
2021/11/22 14:22:47;;;;;;;;;;;6.20;43.60;;;;;;4325590;33;19967;-38
2021/11/22 14:25:25;;;;;;;;;;;6.20;43.60;;;;;;4325737;33;20054;-39
2021/11/22 14:27:53;;;;;;;;;;;6.20;43.70;;;;;;4370471;32;20409;-39
2021/11/22 14:30:33;;;;;;;;;;;6.20;43.80;;;;;;4382139;32;19965;-38
2021/11/22 14:33:11;;;;;;;;;;;6.10;43.80;;;;;;4388003;32;20056;-37
2021/11/22 14:35:38;;;;;;;;;;;6.10;44.00;;;;;;4373703;32;19974;-39
2021/11/22 14:38:09;;;;;;;;;;;6.20;44.30;;;;;;4373565;32;19969;-40
2021/11/22 14:40:35;;;;;;;;;;;6.20;44.30;;;;;;4373785;32;20137;-39